Time;durP1;ratioP1;P1;durP2;ratioP2;P2;SDS_P1;SDS_P2;PMS_P1;PMS_P2;Temp;Humidity;BMP_temperature;BMP_pressure;BME280_temperature;BME280_humidity;BME280_pressure;Samples;Min_cycle;Max_cycle;Signal;HPM_P1;HPM_P2
2021/07/22 00:00:31;;;;;;;18.05;11.38;;;16.00;84.50;;;;;;5043910;28;20216;-71
2021/07/22 00:02:56;;;;;;;18.10;11.55;;;15.90;84.50;;;;;;5044611;28;20037;-72
2021/07/22 00:05:22;;;;;;;18.92;11.40;;;15.90;84.70;;;;;;5045407;28;20041;-71
2021/07/22 00:07:48;;;;;;;16.92;10.88;;;15.90;84.60;;;;;;5044020;28;20053;-72
2021/07/22 00:10:14;;;;;;;20.80;11.30;;;15.90;84.60;;;;;;5027346;28;20451;-71
2021/07/22 00:12:40;;;;;;;21.58;11.05;;;15.80;84.50;;;;;;5027374;28;20041;-72
2021/07/22 00:15:06;;;;;;;20.52;11.15;;;15.80;84.80;;;;;;5027624;28;20107;-72
2021/07/22 00:17:32;;;;;;;16.67;11.38;;;15.80;85.00;;;;;;5027622;28;20029;-71
2021/07/22 00:20:00;;;;;;;18.35;10.90;;;15.80;85.00;;;;;;5027379;28;20226;-71
2021/07/22 00:22:26;;;;;;;21.50;11.27;;;15.80;85.00;;;;;;5043217;28;20033;-72
2021/07/22 00:24:51;;;;;;;20.20;11.77;;;15.80;84.80;;;;;;5044373;28;20239;-72
2021/07/22 00:27:17;;;;;;;17.75;11.55;;;15.70;84.80;;;;;;5044736;28;20029;-72
2021/07/22 00:29:43;;;;;;;17.77;11.13;;;15.70;84.80;;;;;;5044839;28;20247;-72
2021/07/22 00:32:10;;;;;;;17.70;11.75;;;15.70;85.00;;;;;;5043367;28;20197;-72
2021/07/22 00:34:36;;;;;;;19.42;10.85;;;15.60;84.90;;;;;;5043294;28;20041;-72
2021/07/22 00:37:02;;;;;;;19.50;11.75;;;15.60;85.00;;;;;;5043284;28;20057;-72
2021/07/22 00:39:27;;;;;;;18.63;10.80;;;15.60;84.80;;;;;;5044214;28;20052;-72
2021/07/22 00:41:53;;;;;;;18.27;10.77;;;15.50;84.90;;;;;;5043886;28;20026;-71
2021/07/22 00:44:18;;;;;;;16.27;10.85;;;15.50;85.00;;;;;;5043502;28;20044;-72
2021/07/22 00:46:44;;;;;;;16.83;10.82;;;15.50;85.00;;;;;;5043360;28;20040;-72
2021/07/22 00:49:10;;;;;;;18.10;10.18;;;15.50;85.00;;;;;;5026642;28;20026;-72
2021/07/22 00:51:36;;;;;;;17.80;10.85;;;15.40;85.00;;;;;;5042950;28;20085;-72
2021/07/22 00:54:04;;;;;;;15.38;10.48;;;15.40;84.90;;;;;;5043917;28;20056;-71
2021/07/22 00:56:29;;;;;;;16.92;11.07;;;15.40;85.10;;;;;;5027215;28;20250;-72
2021/07/22 00:58:55;;;;;;;17.90;11.07;;;15.40;85.20;;;;;;5043193;28;20033;-71
2021/07/22 01:01:20;;;;;;;17.65;11.18;;;15.40;85.20;;;;;;5044130;28;20060;-71
2021/07/22 01:03:46;;;;;;;16.15;10.90;;;15.30;85.20;;;;;;5042831;28;20045;-72
2021/07/22 01:06:11;;;;;;;18.90;11.48;;;15.30;85.30;;;;;;5026770;28;20021;-71
2021/07/22 01:08:37;;;;;;;17.95;11.13;;;15.40;85.30;;;;;;5043724;28;20359;-71
2021/07/22 01:11:02;;;;;;;16.27;10.48;;;15.30;85.30;;;;;;5026747;28;20034;-72
2021/07/22 01:13:28;;;;;;;18.73;10.48;;;15.30;85.30;;;;;;5026314;28;20034;-71
2021/07/22 01:15:54;;;;;;;16.52;10.60;;;15.30;85.20;;;;;;5042465;28;20037;-71
2021/07/22 01:18:19;;;;;;;16.45;10.43;;;15.30;85.40;;;;;;5042505;28;20060;-72
2021/07/22 01:20:44;;;;;;;16.83;10.02;;;15.30;85.40;;;;;;5042932;28;20022;-71
2021/07/22 01:23:10;;;;;;;17.83;11.00;;;15.30;85.20;;;;;;5042417;28;20213;-72
2021/07/22 01:25:35;;;;;;;16.67;10.65;;;15.30;85.50;;;;;;5043538;28;20035;-72
2021/07/22 01:28:01;;;;;;;19.45;10.52;;;15.30;85.30;;;;;;5043532;28;20089;-72
2021/07/22 01:30:27;;;;;;;17.30;10.45;;;15.30;85.40;;;;;;5042371;28;20033;-72
2021/07/22 01:32:52;;;;;;;18.23;10.73;;;15.30;85.40;;;;;;5026479;28;20224;-72
2021/07/22 01:35:18;;;;;;;15.90;10.23;;;15.20;85.30;;;;;;5025904;28;20034;-72
2021/07/22 01:37:44;;;;;;;16.00;10.40;;;15.20;85.40;;;;;;5043481;28;20097;-72
2021/07/22 01:40:10;;;;;;;17.60;10.15;;;15.10;85.40;;;;;;5042498;28;20087;-73
2021/07/22 01:42:36;;;;;;;14.95;9.75;;;15.10;85.50;;;;;;5043618;28;20160;-71
2021/07/22 01:45:04;;;;;;;15.45;10.32;;;15.20;85.20;;;;;;5026328;28;20029;-72
2021/07/22 01:47:29;;;;;;;16.92;10.68;;;15.10;85.30;;;;;;5026585;28;20097;-72
2021/07/22 01:49:55;;;;;;;14.75;10.35;;;15.10;85.40;;;;;;5043335;28;20045;-71
2021/07/22 01:52:20;;;;;;;16.80;10.82;;;15.10;85.40;;;;;;5043684;28;20339;-72
2021/07/22 01:54:46;;;;;;;19.02;10.35;;;15.10;85.50;;;;;;5042141;28;20044;-71
2021/07/22 01:57:11;;;;;;;16.02;10.88;;;15.10;85.60;;;;;;5043303;28;20044;-72
2021/07/22 01:59:37;;;;;;;19.35;11.38;;;15.00;85.20;;;;;;5043279;28;20115;-71
2021/07/22 02:02:04;;;;;;;17.30;10.20;;;15.00;85.40;;;;;;5042554;28;20038;-72
2021/07/22 02:04:30;;;;;;;15.27;9.93;;;15.00;85.60;;;;;;5043453;28;20095;-72
2021/07/22 02:06:55;;;;;;;17.85;11.05;;;15.10;85.50;;;;;;5043130;28;20214;-71
2021/07/22 02:09:21;;;;;;;16.35;10.40;;;15.10;85.60;;;;;;5042018;28;20037;-72
2021/07/22 02:11:47;;;;;;;16.80;10.27;;;15.20;85.40;;;;;;5026156;28;20029;-72
2021/07/22 02:14:12;;;;;;;19.20;11.55;;;15.20;85.30;;;;;;5025969;28;20049;-72
2021/07/22 02:16:41;;;;;;;17.75;10.95;;;15.20;85.40;;;;;;5042409;28;20036;-72
2021/07/22 02:19:06;;;;;;;20.52;11.35;;;15.20;85.40;;;;;;5042181;28;20034;-72
2021/07/22 02:21:32;;;;;;;20.27;11.80;;;15.00;85.50;;;;;;5041882;28;20029;-72
2021/07/22 02:23:57;;;;;;;19.17;10.35;;;14.90;85.40;;;;;;5043334;28;20256;-72
2021/07/22 02:26:23;;;;;;;17.98;11.10;;;14.80;85.20;;;;;;5025973;28;20100;-72
2021/07/22 02:28:50;;;;;;;18.27;11.07;;;14.90;85.80;;;;;;5043145;28;20103;-71
2021/07/22 02:31:15;;;;;;;17.80;11.30;;;14.90;85.60;;;;;;5025731;28;20092;-72
2021/07/22 02:33:41;;;;;;;17.67;10.77;;;14.80;85.50;;;;;;5044142;28;20045;-71
2021/07/22 02:36:06;;;;;;;19.80;11.35;;;14.80;85.70;;;;;;5047128;28;20221;-72
2021/07/22 02:38:32;;;;;;;15.35;10.48;;;14.80;86.00;;;;;;5046984;28;20043;-71
2021/07/22 02:40:57;;;;;;;15.82;10.38;;;14.80;85.70;;;;;;5029350;28;20035;-72
2021/07/22 02:43:23;;;;;;;17.25;10.07;;;14.70;85.90;;;;;;5046661;28;20033;-71
2021/07/22 02:45:48;;;;;;;16.35;10.63;;;14.60;85.90;;;;;;5045427;28;20065;-72
2021/07/22 02:48:14;;;;;;;16.17;10.63;;;14.60;85.90;;;;;;5045499;28;20025;-72
2021/07/22 02:50:39;;;;;;;15.90;10.68;;;14.70;85.90;;;;;;5047058;28;20162;-72
2021/07/22 02:53:05;;;;;;;17.33;10.52;;;14.60;85.90;;;;;;5045512;28;20041;-72
2021/07/22 02:55:31;;;;;;;21.63;10.43;;;14.60;86.10;;;;;;5045324;28;20217;-72
2021/07/22 02:58:02;;;;;;;17.60;10.75;;;14.70;85.70;;;;;;5046471;28;20072;-72
2021/07/22 03:00:27;;;;;;;;;;;14.60;85.50;;;;;;5029733;28;20031;-71
2021/07/22 03:02:53;;;;;;;18.27;11.05;;;14.50;85.90;;;;;;5046563;28;20188;-72
2021/07/22 03:05:18;;;;;;;16.35;11.23;;;14.50;85.90;;;;;;5045426;28;20062;-72
2021/07/22 03:07:44;;;;;;;19.27;11.27;;;14.60;85.70;;;;;;5045091;28;20029;-72
2021/07/22 03:10:11;;;;;;;21.25;11.48;;;14.50;85.70;;;;;;5046105;28;20046;-72
2021/07/22 03:12:36;;;;;;;16.95;10.50;;;14.40;85.50;;;;;;5044826;28;20328;-72
2021/07/22 03:15:02;;;;;;;21.20;11.60;;;14.40;85.50;;;;;;5046275;28;20036;-72
2021/07/22 03:17:27;;;;;;;26.83;12.18;;;14.40;85.60;;;;;;5045176;28;20041;-72
2021/07/22 03:19:53;;;;;;;17.90;10.88;;;14.40;85.60;;;;;;5045846;28;20034;-72
2021/07/22 03:22:21;;;;;;;19.20;11.57;;;14.40;85.80;;;;;;5045767;28;20034;-72
2021/07/22 03:24:51;;;;;;;17.60;11.00;;;14.40;85.60;;;;;;5045502;28;20275;-71
2021/07/22 03:27:16;;;;;;;18.88;11.50;;;14.30;85.70;;;;;;5044908;28;20025;-72
2021/07/22 03:29:42;;;;;;;21.27;11.23;;;14.40;85.60;;;;;;5046040;28;20026;-72
2021/07/22 03:32:07;;;;;;;18.00;10.93;;;14.40;85.30;;;;;;5045612;28;20034;-72
2021/07/22 03:34:33;;;;;;;17.73;11.18;;;14.30;85.50;;;;;;5044400;28;20045;-72
2021/07/22 03:36:59;;;;;;;34.72;11.50;;;14.30;85.40;;;;;;5027881;28;20391;-73
2021/07/22 03:39:24;;;;;;;17.10;11.65;;;14.30;85.60;;;;;;5045380;28;20029;-72
2021/07/22 03:41:50;;;;;;;22.13;11.07;;;14.30;85.40;;;;;;5045075;28;20338;-72
2021/07/22 03:44:15;;;;;;;18.15;10.88;;;14.20;85.60;;;;;;5044381;28;20063;-72
2021/07/22 03:46:41;;;;;;;18.58;11.15;;;14.20;85.40;;;;;;5044214;28;20041;-72
2021/07/22 03:49:07;;;;;;;22.90;11.38;;;14.20;85.50;;;;;;5044197;28;20034;-72
2021/07/22 03:51:32;;;;;;;19.65;11.20;;;14.30;85.80;;;;;;5027826;28;20038;-73
2021/07/22 03:53:58;;;;;;;17.48;11.20;;;14.20;85.40;;;;;;5045767;28;20038;-72
2021/07/22 03:56:25;;;;;;;19.20;10.70;;;14.30;85.70;;;;;;5045507;28;20037;-72
2021/07/22 03:58:52;;;;;;;22.08;11.85;;;14.30;85.50;;;;;;5027873;28;20079;-72
2021/07/22 04:01:18;;;;;;;18.20;10.52;;;14.30;85.60;;;;;;5010941;28;20033;-72
2021/07/22 04:03:43;;;;;;;18.92;11.68;;;14.30;85.50;;;;;;5044964;28;20080;-72
2021/07/22 04:06:10;;;;;;;20.17;11.45;;;14.30;85.90;;;;;;5044570;28;20029;-72
2021/07/22 04:08:36;;;;;;;19.63;10.77;;;14.30;85.60;;;;;;5045432;28;20049;-72
2021/07/22 04:11:01;;;;;;;22.20;11.73;;;14.30;85.70;;;;;;5045113;28;20087;-72
2021/07/22 04:13:27;;;;;;;19.00;11.02;;;14.30;85.70;;;;;;5044858;28;20045;-72
2021/07/22 04:15:52;;;;;;;17.73;10.93;;;14.30;85.60;;;;;;5044747;28;20148;-72
2021/07/22 04:18:18;;;;;;;19.90;11.05;;;14.30;85.70;;;;;;5043810;28;20053;-72
2021/07/22 04:20:43;;;;;;;17.65;11.48;;;14.40;85.40;;;;;;5045389;28;20330;-72
2021/07/22 04:23:09;;;;;;;19.75;11.20;;;14.40;85.70;;;;;;5044637;28;20045;-72
2021/07/22 04:25:34;;;;;;;19.48;11.10;;;14.40;85.40;;;;;;5043372;28;20061;-72
2021/07/22 04:28:00;;;;;;;18.80;11.20;;;14.40;85.50;;;;;;5044399;28;20049;-72
2021/07/22 04:30:25;;;;;;;21.08;11.10;;;14.40;85.00;;;;;;5044365;28;20033;-72
2021/07/22 04:32:55;;;;;;;17.20;10.93;;;14.50;84.60;;;;;;5043739;28;20208;-72
2021/07/22 04:35:21;;;;;;;17.60;10.95;;;14.60;85.20;;;;;;5027733;28;20041;-72
2021/07/22 04:37:46;;;;;;;15.88;10.35;;;14.60;85.00;;;;;;5043157;28;20080;-72
2021/07/22 04:40:12;;;;;;;18.90;11.38;;;14.60;84.50;;;;;;5026738;28;20086;-74
2021/07/22 04:42:37;;;;;;;21.45;12.35;;;14.60;85.00;;;;;;5043359;28;20048;-73
2021/07/22 04:45:03;;;;;;;18.63;11.90;;;14.60;84.90;;;;;;5026989;28;20313;-73
2021/07/22 04:47:29;;;;;;;20.90;11.35;;;14.70;85.10;;;;;;5026965;28;20038;-72
2021/07/22 04:49:54;;;;;;;19.38;11.38;;;14.80;83.70;;;;;;5043302;28;20044;-74
2021/07/22 04:52:20;;;;;;;19.42;10.13;;;14.80;83.90;;;;;;5044156;28;20033;-74
2021/07/22 04:54:45;;;;;;;21.60;11.23;;;14.90;83.50;;;;;;5009940;28;20037;-73
2021/07/22 04:57:11;;;;;;;20.27;10.70;;;15.00;83.60;;;;;;5026466;28;20221;-72
2021/07/22 04:59:37;;;;;;;17.85;11.27;;;15.00;84.20;;;;;;5044310;28;20197;-72
2021/07/22 05:02:03;;;;;;;15.38;10.73;;;15.10;84.60;;;;;;5043245;28;20052;-73
2021/07/22 05:04:28;;;;;;;21.50;11.25;;;15.20;84.80;;;;;;5026308;28;20132;-70
2021/07/22 05:06:54;;;;;;;18.55;11.73;;;15.20;85.00;;;;;;5042837;28;20040;-71
2021/07/22 05:09:19;;;;;;;21.23;10.80;;;15.20;83.70;;;;;;5042870;28;20041;-72
2021/07/22 05:11:45;;;;;;;18.15;11.18;;;15.30;84.50;;;;;;5043431;28;20029;-72
2021/07/22 05:14:10;;;;;;;18.05;11.68;;;15.40;85.00;;;;;;5043574;28;20337;-72
2021/07/22 05:16:37;;;;;;;20.55;11.43;;;15.40;83.50;;;;;;5042884;28;20045;-70
2021/07/22 05:19:02;;;;;;;19.08;11.15;;;15.60;84.70;;;;;;5043710;28;20029;-71
2021/07/22 05:21:28;;;;;;;20.75;11.40;;;15.60;85.00;;;;;;5042770;28;20032;-72
2021/07/22 05:23:53;;;;;;;19.80;11.25;;;15.60;84.20;;;;;;5042816;28;20053;-71
2021/07/22 05:26:19;;;;;;;20.05;11.05;;;15.80;84.40;;;;;;5010072;28;20041;-72
2021/07/22 05:28:44;;;;;;;17.20;10.50;;;15.80;84.50;;;;;;5043649;28;20348;-72
2021/07/22 05:31:10;;;;;;;17.85;11.25;;;15.90;84.50;;;;;;5042454;28;20100;-71
2021/07/22 05:33:37;;;;;;;17.23;11.13;;;16.00;84.60;;;;;;5043208;28;20075;-72
2021/07/22 05:36:04;;;;;;;20.73;11.68;;;16.10;84.70;;;;;;5044155;28;20365;-72
2021/07/22 05:38:30;;;;;;;21.48;11.50;;;16.10;83.60;;;;;;5026194;28;20037;-72
2021/07/22 05:40:59;;;;;;;20.88;11.57;;;16.20;84.00;;;;;;5042195;28;20255;-72
2021/07/22 05:43:25;;;;;;;24.15;12.10;;;16.30;83.60;;;;;;5042043;28;20040;-72
2021/07/22 05:45:51;;;;;;;20.50;11.50;;;16.30;83.80;;;;;;5041667;28;20097;-72
2021/07/22 05:48:17;;;;;;;20.33;11.40;;;16.50;84.20;;;;;;5041974;28;20037;-72
2021/07/22 05:50:42;;;;;;;17.77;11.73;;;16.60;83.40;;;;;;5043973;28;20022;-72
2021/07/22 05:53:07;;;;;;;21.17;11.38;;;16.70;83.40;;;;;;5042485;28;20056;-72
2021/07/22 05:55:33;;;;;;;22.52;11.40;;;16.80;83.30;;;;;;5043211;28;20029;-72
2021/07/22 05:57:58;;;;;;;21.48;11.85;;;16.80;81.80;;;;;;5042211;28;20050;-72
2021/07/22 06:00:24;;;;;;;19.70;11.98;;;17.00;82.70;;;;;;5042234;28;20032;-72
2021/07/22 06:02:50;;;;;;;18.50;11.40;;;17.00;83.30;;;;;;5009748;28;20309;-72
2021/07/22 06:05:15;;;;;;;21.75;12.15;;;17.10;81.60;;;;;;5041999;28;20037;-72
2021/07/22 06:07:41;;;;;;;19.38;11.85;;;17.30;82.30;;;;;;5044533;28;20339;-72
2021/07/22 06:10:07;;;;;;;20.08;11.57;;;17.30;82.40;;;;;;5029346;28;20332;-72
2021/07/22 06:12:32;;;;;;;21.13;11.18;;;17.40;81.10;;;;;;5047057;28;20293;-72
2021/07/22 06:14:58;;;;;;;19.30;12.15;;;17.50;81.40;;;;;;5047576;28;20121;-72
2021/07/22 06:17:23;;;;;;;19.40;11.40;;;17.70;81.10;;;;;;5029539;28;20041;-72
2021/07/22 06:19:49;;;;;;;26.30;11.95;;;17.80;79.70;;;;;;5045404;28;20079;-72
2021/07/22 06:22:15;;;;;;;24.98;13.35;;;17.80;79.30;;;;;;5045572;28;20037;-72
2021/07/22 06:24:40;;;;;;;23.27;12.82;;;18.00;79.00;;;;;;5045359;28;20091;-72
2021/07/22 06:27:11;;;;;;;22.77;12.27;;;18.10;79.50;;;;;;5046277;28;20060;-71
2021/07/22 06:29:36;;;;;;;26.48;12.30;;;18.30;79.10;;;;;;5029728;28;20209;-72
2021/07/22 06:32:02;;;;;;;24.20;12.63;;;18.30;78.00;;;;;;5045814;28;20092;-71
2021/07/22 06:34:28;;;;;;;21.50;12.43;;;18.40;76.80;;;;;;5029226;28;20052;-72
2021/07/22 06:36:54;;;;;;;28.48;11.63;;;18.50;77.30;;;;;;5045212;28;20037;-72
2021/07/22 06:39:20;;;;;;;25.55;12.95;;;18.60;77.30;;;;;;5046265;28;20029;-72
2021/07/22 06:41:45;;;;;;;19.92;12.20;;;18.70;76.60;;;;;;5046041;28;20104;-72
2021/07/22 06:44:11;;;;;;;20.10;11.73;;;18.60;77.40;;;;;;5046653;28;20029;-72
2021/07/22 06:46:36;;;;;;;22.23;12.23;;;18.80;75.90;;;;;;5045169;28;20038;-72
2021/07/22 06:49:02;;;;;;;20.60;12.50;;;18.90;76.00;;;;;;5028717;28;20216;-72
2021/07/22 06:51:27;;;;;;;22.55;12.50;;;19.00;76.30;;;;;;5046164;28;20252;-72
2021/07/22 06:53:54;;;;;;;20.40;12.52;;;19.10;74.30;;;;;;5046835;28;20029;-72
2021/07/22 06:56:19;;;;;;;25.23;12.07;;;19.20;75.20;;;;;;5045428;28;20030;-75
2021/07/22 06:58:47;;;;;;;26.25;12.38;;;19.30;75.00;;;;;;5045096;28;20029;-75
2021/07/22 07:01:13;;;;;;;20.55;12.35;;;19.60;74.30;;;;;;5029053;28;20037;-72
2021/07/22 07:03:39;;;;;;;20.35;13.02;;;19.60;74.60;;;;;;5046373;28;20080;-73
2021/07/22 07:06:04;;;;;;;21.58;12.10;;;19.80;74.80;;;;;;5045473;28;20106;-73
2021/07/22 07:08:30;;;;;;;20.70;12.00;;;19.90;71.20;;;;;;5012223;28;20056;-75
2021/07/22 07:10:55;;;;;;;19.48;12.02;;;20.00;72.30;;;;;;5045143;28;20095;-72
2021/07/22 07:13:21;;;;;;;19.45;11.82;;;20.20;70.70;;;;;;5028429;28;20037;-73
2021/07/22 07:15:46;;;;;;;20.27;12.30;;;20.30;70.40;;;;;;5028141;28;20036;-73
2021/07/22 07:18:12;;;;;;;21.10;12.55;;;20.30;69.90;;;;;;5044646;28;20038;-71
2021/07/22 07:20:37;;;;;;;19.17;12.07;;;20.50;70.30;;;;;;5045066;28;20037;-74
2021/07/22 07:23:03;;;;;;;19.80;11.57;;;20.60;71.10;;;;;;5044513;28;20128;-72
2021/07/22 07:25:28;;;;;;;18.33;11.80;;;20.70;71.50;;;;;;5044825;28;20109;-71
2021/07/22 07:27:54;;;;;;;18.67;12.18;;;20.50;69.60;;;;;;5044359;28;20034;-72
2021/07/22 07:30:20;;;;;;;21.02;11.70;;;20.80;71.80;;;;;;5045653;28;20056;-70
2021/07/22 07:32:47;;;;;;;20.63;11.55;;;20.90;69.30;;;;;;5028771;28;20026;-70
2021/07/22 07:35:13;;;;;;;19.15;11.48;;;21.10;68.50;;;;;;5045611;28;20045;-70
2021/07/22 07:37:38;;;;;;;18.17;11.05;;;21.10;68.00;;;;;;5044203;28;20343;-70
2021/07/22 07:40:05;;;;;;;16.02;11.07;;;21.30;68.00;;;;;;5045248;28;20044;-70
2021/07/22 07:42:30;;;;;;;17.73;11.13;;;21.50;69.60;;;;;;5043977;28;20038;-70
2021/07/22 07:44:56;;;;;;;24.08;12.07;;;21.80;70.60;;;;;;5044970;28;20060;-70
2021/07/22 07:47:21;;;;;;;18.85;11.13;;;21.80;68.10;;;;;;5045517;28;20208;-70
2021/07/22 07:49:47;;;;;;;19.52;11.25;;;21.90;65.60;;;;;;5045277;28;20116;-69
2021/07/22 07:52:12;;;;;;;16.42;11.30;;;22.10;66.60;;;;;;5043974;28;20076;-70
2021/07/22 07:54:38;;;;;;;16.92;11.07;;;22.30;65.20;;;;;;5043374;28;20060;-70
2021/07/22 07:57:03;;;;;;;17.95;10.52;;;22.50;66.70;;;;;;5027874;28;20378;-69
2021/07/22 07:59:29;;;;;;;17.42;10.38;;;22.70;66.00;;;;;;5045475;28;20080;-69
2021/07/22 08:01:54;;;;;;;20.63;10.88;;;22.90;64.50;;;;;;5027892;28;20059;-72
2021/07/22 08:04:20;;;;;;;21.90;11.13;;;22.90;66.20;;;;;;5044050;28;20037;-71
2021/07/22 08:06:45;;;;;;;21.25;10.68;;;23.20;64.20;;;;;;5044866;28;20151;-70
2021/07/22 08:09:11;;;;;;;17.20;9.55;;;23.30;64.60;;;;;;5044519;28;20088;-63
2021/07/22 08:11:36;;;;;;;18.75;10.80;;;23.50;64.30;;;;;;5045348;28;20034;-64
2021/07/22 08:14:02;;;;;;;16.70;10.02;;;23.40;61.40;;;;;;5044997;28;20037;-63
2021/07/22 08:16:27;;;;;;;19.83;10.07;;;23.30;62.60;;;;;;5044734;28;20056;-63
2021/07/22 08:18:53;;;;;;;15.07;9.98;;;23.30;59.20;;;;;;5044627;28;20085;-63
2021/07/22 08:21:19;;;;;;;17.80;10.32;;;23.30;61.60;;;;;;5044577;28;20060;-64
2021/07/22 08:23:45;;;;;;;18.38;10.23;;;23.40;60.60;;;;;;5044851;28;20060;-63
2021/07/22 08:26:10;;;;;;;21.60;10.25;;;23.60;62.00;;;;;;5027328;28;20037;-64
2021/07/22 08:28:36;;;;;;;14.55;9.82;;;23.40;62.50;;;;;;5044395;28;20044;-63
2021/07/22 08:31:02;;;;;;;23.83;9.93;;;23.40;63.80;;;;;;5043425;28;20064;-63
2021/07/22 08:33:27;;;;;;;20.52;9.55;;;23.70;63.50;;;;;;5043198;28;20117;-64
2021/07/22 08:35:53;;;;;;;17.80;10.13;;;23.80;60.90;;;;;;5045094;28;20030;-63
2021/07/22 08:38:18;;;;;;;15.45;9.18;;;23.80;59.90;;;;;;5043615;28;20032;-64
2021/07/22 08:40:44;;;;;;;16.65;9.27;;;23.90;58.70;;;;;;5043077;28;20105;-63
2021/07/22 08:43:10;;;;;;;15.25;8.70;;;23.90;57.50;;;;;;5044115;28;20080;-63
2021/07/22 08:45:35;;;;;;;13.98;9.15;;;24.10;60.30;;;;;;5043149;28;20083;-64
2021/07/22 08:48:01;;;;;;;14.75;8.77;;;24.20;61.40;;;;;;5044857;28;20039;-63
2021/07/22 08:50:26;;;;;;;14.98;9.52;;;24.40;60.10;;;;;;5044603;28;20238;-63
2021/07/22 08:52:52;;;;;;;13.05;9.20;;;24.40;60.40;;;;;;5044305;28;20168;-63
2021/07/22 08:55:18;;;;;;;13.52;9.20;;;24.50;61.70;;;;;;5044205;28;20033;-63
2021/07/22 08:57:44;;;;;;;14.68;9.95;;;24.60;54.40;;;;;;5026625;28;20056;-63
2021/07/22 09:00:10;;;;;;;12.77;8.88;;;24.60;57.80;;;;;;5043654;28;20021;-63
2021/07/22 09:02:35;;;;;;;14.88;9.50;;;24.70;59.00;;;;;;5043837;28;20037;-63
2021/07/22 09:05:02;;;;;;;17.13;9.32;;;24.80;55.00;;;;;;5044297;28;20034;-63
2021/07/22 09:07:28;;;;;;;19.13;9.15;;;24.90;57.70;;;;;;5044258;28;20043;-63
2021/07/22 09:10:06;;;;;;;18.77;9.15;;;24.70;54.50;;;;;;5043719;28;20033;-64
2021/07/22 09:12:45;;;;;;;13.90;9.20;;;24.80;55.40;;;;;;5043748;28;20208;-63
2021/07/22 09:15:32;;;;;;;15.82;8.55;;;24.90;56.40;;;;;;5044405;28;20198;-63
2021/07/22 09:17:57;;;;;;;13.52;8.68;;;25.10;51.90;;;;;;5044054;28;20030;-63
2021/07/22 09:20:31;;;;;;;13.98;8.95;;;25.10;53.00;;;;;;5044168;28;20045;-63
2021/07/22 09:22:57;;;;;;;15.27;9.10;;;25.30;52.20;;;;;;5043621;28;20129;-64
2021/07/22 09:25:39;;;;;;;13.15;8.85;;;25.20;56.70;;;;;;5043757;28;20029;-64
2021/07/22 09:28:04;;;;;;;16.67;9.20;;;25.20;56.50;;;;;;5043555;28;20397;-64
2021/07/22 09:30:30;;;;;;;13.10;8.63;;;25.30;57.00;;;;;;5043299;28;20026;-64
2021/07/22 09:32:55;;;;;;;12.63;8.90;;;25.40;53.20;;;;;;5043890;28;20079;-64
2021/07/22 09:35:22;;;;;;;12.55;8.18;;;25.60;53.40;;;;;;5043931;28;20089;-64
2021/07/22 09:37:49;;;;;;;12.18;8.27;;;25.60;54.00;;;;;;5043440;28;20034;-63
2021/07/22 09:40:32;;;;;;;15.43;10.15;;;25.80;52.20;;;;;;5042438;28;20082;-63
2021/07/22 09:42:57;;;;;;;22.05;11.68;;;25.60;50.50;;;;;;5045584;28;20033;-64
2021/07/22 09:45:24;;;;;;;246.95;98.22;;;25.80;54.30;;;;;;5047684;28;20384;-64
2021/07/22 09:47:51;;;;;;;173.30;77.63;;;26.00;50.40;;;;;;5046826;28;20210;-64
2021/07/22 09:50:17;;;;;;;119.88;54.88;;;26.20;48.10;;;;;;5047872;28;20244;-64
2021/07/22 09:52:44;;;;;;;109.90;47.28;;;26.20;50.10;;;;;;5047372;28;20037;-61
2021/07/22 09:55:23;;;;;;;24.95;14.20;;;26.10;51.20;;;;;;5047595;28;20100;-61
2021/07/22 09:57:54;;;;;;;18.63;11.70;;;26.00;48.20;;;;;;5046124;28;20037;-61
2021/07/22 10:00:20;;;;;;;17.83;10.57;;;25.80;49.40;;;;;;5046125;28;20118;-63
2021/07/22 10:02:45;;;;;;;20.67;10.85;;;25.70;52.70;;;;;;5047999;28;20033;-61
2021/07/22 10:05:11;;;;;;;30.40;17.30;;;26.00;48.00;;;;;;5046400;28;20037;-61
2021/07/22 10:07:37;;;;;;;14.68;9.25;;;26.00;48.00;;;;;;5029697;28;20108;-64
2021/07/22 10:10:03;;;;;;;14.18;8.65;;;26.10;48.30;;;;;;5029936;28;20045;-62
2021/07/22 10:12:29;;;;;;;14.93;9.80;;;26.20;47.10;;;;;;5029452;28;20321;-63
2021/07/22 10:14:56;;;;;;;13.55;8.82;;;26.40;47.60;;;;;;5047421;28;20056;-63
2021/07/22 10:17:27;;;;;;;14.38;8.70;;;26.60;51.20;;;;;;5047351;28;20049;-63
2021/07/22 10:19:55;;;;;;;16.55;8.95;;;26.70;50.00;;;;;;5047016;28;20228;-63
2021/07/22 10:22:20;;;;;;;15.98;9.88;;;26.80;51.90;;;;;;5029328;28;20105;-62
2021/07/22 10:24:47;;;;;;;14.20;8.30;;;26.70;54.30;;;;;;5029047;28;20041;-62
2021/07/22 10:27:13;;;;;;;14.05;9.38;;;26.70;51.50;;;;;;5030086;28;20041;-63
2021/07/22 10:29:38;;;;;;;13.88;8.52;;;26.70;50.80;;;;;;5046719;28;20029;-62
2021/07/22 10:32:04;;;;;;;15.35;8.93;;;26.70;49.90;;;;;;5045568;28;20029;-62
2021/07/22 10:34:31;;;;;;;12.88;9.10;;;26.90;49.20;;;;;;5046592;28;20053;-63
2021/07/22 10:36:56;;;;;;;17.15;9.35;;;27.10;50.30;;;;;;5045326;28;20038;-63
2021/07/22 10:40:06;;;;;;;15.70;8.63;;;27.10;44.20;;;;;;5045212;28;20212;-63
2021/07/22 10:42:51;;;;;;;16.17;9.25;;;26.80;43.50;;;;;;5046253;28;20025;-63
2021/07/22 10:45:20;;;;;;;15.57;9.45;;;26.80;50.90;;;;;;5045229;28;20218;-63
2021/07/22 10:48:04;;;;;;;18.02;9.48;;;27.00;49.60;;;;;;5047055;28;20232;-63
2021/07/22 10:50:57;;;;;;;13.73;9.15;;;27.10;49.20;;;;;;5045564;28;20221;-62
2021/07/22 10:53:35;;;;;;;12.77;8.90;;;27.00;46.60;;;;;;5045773;28;20042;-62
2021/07/22 10:56:01;;;;;;;13.50;8.45;;;26.90;48.60;;;;;;5046798;28;20029;-62
2021/07/22 10:58:30;;;;;;;12.02;8.45;;;26.80;49.40;;;;;;5045433;28;20033;-62
2021/07/22 11:00:56;;;;;;;14.98;9.35;;;26.50;47.90;;;;;;5046394;28;20084;-62
2021/07/22 11:03:33;;;;;;;12.93;9.15;;;26.50;47.40;;;;;;5028363;28;20034;-62
2021/07/22 11:06:09;;;;;;;12.23;8.18;;;26.80;49.50;;;;;;5046776;28;20330;-62
2021/07/22 11:08:38;;;;;;;13.80;8.52;;;26.80;45.90;;;;;;5045419;28;20033;-62
2021/07/22 11:11:07;;;;;;;11.00;7.78;;;26.90;47.30;;;;;;5046243;28;20034;-65
2021/07/22 11:13:39;;;;;;;14.82;8.60;;;26.80;49.30;;;;;;5046076;28;20044;-65
2021/07/22 11:16:26;;;;;;;14.25;9.10;;;26.80;47.30;;;;;;5046087;28;20101;-65
2021/07/22 11:18:53;;;;;;;14.43;8.65;;;27.10;47.60;;;;;;5028437;28;20034;-65
2021/07/22 11:21:28;;;;;;;16.67;8.82;;;27.30;44.60;;;;;;5012262;28;20056;-64
2021/07/22 11:23:54;;;;;;;15.82;8.68;;;27.20;42.90;;;;;;5029914;28;20356;-65
2021/07/22 11:26:28;;;;;;;18.52;8.45;;;27.10;44.40;;;;;;5045023;28;20075;-65
2021/07/22 11:28:53;;;;;;;15.40;8.77;;;27.10;44.90;;;;;;5044939;28;20064;-65
2021/07/22 11:31:19;;;;;;;12.50;8.63;;;27.10;44.70;;;;;;5044637;28;20057;-65
2021/07/22 11:33:44;;;;;;;17.13;8.70;;;27.30;45.50;;;;;;5045709;28;20045;-66
2021/07/22 11:36:18;;;;;;;12.35;8.27;;;27.60;46.00;;;;;;5028703;28;20037;-64
2021/07/22 11:38:52;;;;;;;13.90;8.20;;;27.70;43.20;;;;;;5044685;28;20087;-64
2021/07/22 11:41:17;;;;;;;13.02;8.27;;;27.60;45.40;;;;;;5045868;28;20061;-63
2021/07/22 11:43:51;;;;;;;18.65;9.10;;;27.60;44.90;;;;;;5045327;28;20034;-63
2021/07/22 11:46:32;;;;;;;12.88;8.45;;;27.40;46.00;;;;;;5044032;28;20034;-64
2021/07/22 11:48:58;;;;;;;;;;;27.50;47.00;;;;;;5044780;28;20040;-63
2021/07/22 11:51:23;;;;;;;15.80;9.10;;;27.50;46.00;;;;;;5045340;28;19901;-63
2021/07/22 11:53:49;;;;;;;15.10;8.52;;;27.30;46.00;;;;;;5045744;28;20030;-63
2021/07/22 11:56:16;;;;;;;14.77;8.85;;;27.40;48.50;;;;;;5027738;28;20089;-63
2021/07/22 11:58:46;;;;;;;14.13;8.57;;;27.60;47.50;;;;;;5027653;28;20117;-63
2021/07/22 12:01:11;;;;;;;17.03;8.63;;;27.60;48.90;;;;;;5045307;28;20052;-66
2021/07/22 12:03:37;;;;;;;15.40;9.05;;;27.80;49.20;;;;;;5043866;28;20097;-66
2021/07/22 12:06:02;;;;;;;16.77;9.25;;;27.90;44.60;;;;;;5044369;28;20028;-66
2021/07/22 12:08:28;;;;;;;13.68;8.48;;;28.00;44.00;;;;;;5045262;28;20025;-66
2021/07/22 12:10:58;;;;;;;14.40;8.85;;;28.10;42.40;;;;;;5043923;28;20115;-66
2021/07/22 12:13:24;;;;;;;12.38;8.10;;;27.90;45.40;;;;;;5044813;28;20033;-66
2021/07/22 12:15:50;;;;;;;14.65;8.60;;;27.80;46.50;;;;;;5027084;28;20268;-66
2021/07/22 12:18:15;;;;;;;12.70;9.25;;;27.80;46.60;;;;;;5043433;28;20055;-64
2021/07/22 12:20:41;;;;;;;14.38;9.55;;;27.80;44.10;;;;;;5045016;28;20308;-63
2021/07/22 12:23:30;;;;;;;13.85;9.05;;;27.70;46.50;;;;;;5026789;28;20046;-63
2021/07/22 12:26:00;;;;;;;14.02;8.27;;;27.80;44.30;;;;;;5043589;28;20045;-63
2021/07/22 12:28:26;;;;;;;12.80;8.45;;;28.00;48.70;;;;;;5044162;28;20029;-64